sensor_id;sensor_type;location;lat;lon;timestamp;P1;durP1;ratioP1;P2;durP2;ratioP2
47778;SDS011;33538;48.432;11.350;2023-02-20T00:01:59;2.20;;;1.38;;
47778;SDS011;33538;48.432;11.350;2023-02-20T00:04:26;3.17;;;1.35;;
47778;SDS011;33538;48.432;11.350;2023-02-20T00:06:52;3.83;;;1.67;;
47778;SDS011;33538;48.432;11.350;2023-02-20T00:09:19;3.72;;;1.30;;
47778;SDS011;33538;48.432;11.350;2023-02-20T00:11:46;3.22;;;1.63;;
47778;SDS011;33538;48.432;11.350;2023-02-20T00:14:13;2.28;;;1.67;;
47778;SDS011;33538;48.432;11.350;2023-02-20T00:16:39;1.77;;;1.23;;
47778;SDS011;33538;48.432;11.350;2023-02-20T00:19:07;4.10;;;1.60;;
47778;SDS011;33538;48.432;11.350;2023-02-20T00:21:34;3.90;;;1.25;;
47778;SDS011;33538;48.432;11.350;2023-02-20T00:24:01;2.72;;;1.58;;
47778;SDS011;33538;48.432;11.350;2023-02-20T00:26:28;3.10;;;1.42;;
47778;SDS011;33538;48.432;11.350;2023-02-20T00:28:54;3.70;;;1.30;;
47778;SDS011;33538;48.432;11.350;2023-02-20T00:31:21;4.38;;;1.60;;
47778;SDS011;33538;48.432;11.350;2023-02-20T00:33:48;3.45;;;1.63;;
47778;SDS011;33538;48.432;11.350;2023-02-20T00:36:16;3.15;;;1.65;;
47778;SDS011;33538;48.432;11.350;2023-02-20T00:38:45;3.47;;;1.50;;
47778;SDS011;33538;48.432;11.350;2023-02-20T00:41:12;2.28;;;1.27;;
47778;SDS011;33538;48.432;11.350;2023-02-20T00:43:39;3.97;;;1.83;;
47778;SDS011;33538;48.432;11.350;2023-02-20T00:46:09;2.47;;;1.88;;
47778;SDS011;33538;48.432;11.350;2023-02-20T00:48:37;2.38;;;1.17;;
47778;SDS011;33538;48.432;11.350;2023-02-20T00:51:04;4.03;;;1.25;;
47778;SDS011;33538;48.432;11.350;2023-02-20T00:53:32;2.38;;;1.35;;
47778;SDS011;33538;48.432;11.350;2023-02-20T00:55:59;4.68;;;1.92;;
47778;SDS011;33538;48.432;11.350;2023-02-20T00:58:25;3.13;;;1.40;;
47778;SDS011;33538;48.432;11.350;2023-02-20T01:00:52;5.35;;;1.45;;
47778;SDS011;33538;48.432;11.350;2023-02-20T01:03:19;3.97;;;1.40;;
47778;SDS011;33538;48.432;11.350;2023-02-20T01:05:46;3.35;;;1.38;;
47778;SDS011;33538;48.432;11.350;2023-02-20T01:08:12;5.15;;;1.65;;
47778;SDS011;33538;48.432;11.350;2023-02-20T01:10:41;2.95;;;1.40;;
47778;SDS011;33538;48.432;11.350;2023-02-20T01:13:07;3.85;;;1.45;;
47778;SDS011;33538;48.432;11.350;2023-02-20T01:15:34;2.85;;;1.75;;
47778;SDS011;33538;48.432;11.350;2023-02-20T01:18:01;2.30;;;1.23;;
47778;SDS011;33538;48.432;11.350;2023-02-20T01:20:28;3.53;;;1.60;;
47778;SDS011;33538;48.432;11.350;2023-02-20T01:22:54;1.65;;;1.55;;
47778;SDS011;33538;48.432;11.350;2023-02-20T01:25:21;3.05;;;1.25;;
47778;SDS011;33538;48.432;11.350;2023-02-20T01:27:49;3.13;;;1.40;;
47778;SDS011;33538;48.432;11.350;2023-02-20T01:30:16;6.63;;;1.30;;
47778;SDS011;33538;48.432;11.350;2023-02-20T01:32:43;4.28;;;1.45;;
47778;SDS011;33538;48.432;11.350;2023-02-20T01:35:10;2.20;;;1.40;;
47778;SDS011;33538;48.432;11.350;2023-02-20T01:37:37;6.85;;;1.77;;
47778;SDS011;33538;48.432;11.350;2023-02-20T01:40:04;6.70;;;1.48;;
47778;SDS011;33538;48.432;11.350;2023-02-20T01:42:32;2.80;;;1.48;;
47778;SDS011;33538;48.432;11.350;2023-02-20T01:50:10;3.67;;;1.65;;
47778;SDS011;33538;48.432;11.350;2023-02-20T01:52:39;3.83;;;1.52;;
47778;SDS011;33538;48.432;11.350;2023-02-20T01:55:09;2.38;;;1.50;;
47778;SDS011;33538;48.432;11.350;2023-02-20T01:57:39;1.77;;;1.40;;
47778;SDS011;33538;48.432;11.350;2023-02-20T02:00:09;3.08;;;1.40;;
47778;SDS011;33538;48.432;11.350;2023-02-20T02:02:41;2.70;;;1.50;;
47778;SDS011;33538;48.432;11.350;2023-02-20T02:05:13;2.15;;;1.35;;
47778;SDS011;33538;48.432;11.350;2023-02-20T02:07:40;2.08;;;1.30;;
47778;SDS011;33538;48.432;11.350;2023-02-20T02:10:08;1.85;;;1.13;;
47778;SDS011;33538;48.432;11.350;2023-02-20T02:12:38;1.52;;;1.35;;
47778;SDS011;33538;48.432;11.350;2023-02-20T02:15:11;2.17;;;1.30;;
47778;SDS011;33538;48.432;11.350;2023-02-20T02:17:48;6.07;;;1.83;;
47778;SDS011;33538;48.432;11.350;2023-02-20T02:23:27;5.05;;;1.40;;
47778;SDS011;33538;48.432;11.350;2023-02-20T02:26:31;1.98;;;1.25;;
47778;SDS011;33538;48.432;11.350;2023-02-20T02:29:31;2.25;;;1.40;;
47778;SDS011;33538;48.432;11.350;2023-02-20T02:32:19;2.22;;;1.42;;
47778;SDS011;33538;48.432;11.350;2023-02-20T02:38:07;2.63;;;1.70;;
47778;SDS011;33538;48.432;11.350;2023-02-20T02:40:42;3.38;;;1.80;;
47778;SDS011;33538;48.432;11.350;2023-02-20T02:43:19;4.70;;;1.58;;
47778;SDS011;33538;48.432;11.350;2023-02-20T02:45:54;4.10;;;1.83;;
47778;SDS011;33538;48.432;11.350;2023-02-20T02:48:23;2.53;;;1.58;;
47778;SDS011;33538;48.432;11.350;2023-02-20T02:50:54;2.22;;;1.58;;
47778;SDS011;33538;48.432;11.350;2023-02-20T02:53:26;6.22;;;1.77;;
47778;SDS011;33538;48.432;11.350;2023-02-20T02:55:53;2.50;;;1.40;;
47778;SDS011;33538;48.432;11.350;2023-02-20T02:58:20;2.83;;;1.80;;
47778;SDS011;33538;48.432;11.350;2023-02-20T03:00:48;4.80;;;2.00;;
47778;SDS011;33538;48.432;11.350;2023-02-20T03:03:21;2.17;;;1.63;;
47778;SDS011;33538;48.432;11.350;2023-02-20T03:05:51;3.22;;;1.73;;
47778;SDS011;33538;48.432;11.350;2023-02-20T03:08:25;2.15;;;1.35;;
47778;SDS011;33538;48.432;11.350;2023-02-20T03:10:59;5.15;;;1.73;;
47778;SDS011;33538;48.432;11.350;2023-02-20T03:13:30;4.05;;;1.83;;
47778;SDS011;33538;48.432;11.350;2023-02-20T03:16:00;3.38;;;1.65;;
47778;SDS011;33538;48.432;11.350;2023-02-20T03:18:28;1.95;;;1.58;;
47778;SDS011;33538;48.432;11.350;2023-02-20T03:21:02;2.05;;;1.55;;
47778;SDS011;33538;48.432;11.350;2023-02-20T03:23:37;3.17;;;1.80;;
47778;SDS011;33538;48.432;11.350;2023-02-20T03:26:06;8.60;;;1.80;;
47778;SDS011;33538;48.432;11.350;2023-02-20T03:28:37;4.07;;;1.60;;
47778;SDS011;33538;48.432;11.350;2023-02-20T03:31:08;2.80;;;1.92;;
47778;SDS011;33538;48.432;11.350;2023-02-20T03:33:39;3.85;;;1.98;;
47778;SDS011;33538;48.432;11.350;2023-02-20T03:36:09;2.88;;;1.40;;
47778;SDS011;33538;48.432;11.350;2023-02-20T03:38:41;3.25;;;1.77;;
47778;SDS011;33538;48.432;11.350;2023-02-20T03:41:12;3.65;;;1.88;;
47778;SDS011;33538;48.432;11.350;2023-02-20T03:43:41;3.78;;;1.70;;
47778;SDS011;33538;48.432;11.350;2023-02-20T03:46:12;2.83;;;1.77;;
47778;SDS011;33538;48.432;11.350;2023-02-20T03:48:42;4.35;;;1.70;;
47778;SDS011;33538;48.432;11.350;2023-02-20T03:51:11;3.67;;;1.70;;
47778;SDS011;33538;48.432;11.350;2023-02-20T03:53:39;2.10;;;1.63;;
47778;SDS011;33538;48.432;11.350;2023-02-20T03:56:09;4.97;;;1.50;;
47778;SDS011;33538;48.432;11.350;2023-02-20T03:58:40;2.58;;;1.75;;
47778;SDS011;33538;48.432;11.350;2023-02-20T04:01:11;3.40;;;1.70;;
47778;SDS011;33538;48.432;11.350;2023-02-20T04:03:40;3.58;;;1.85;;
47778;SDS011;33538;48.432;11.350;2023-02-20T04:06:09;5.40;;;1.77;;
47778;SDS011;33538;48.432;11.350;2023-02-20T04:08:40;2.55;;;1.83;;
47778;SDS011;33538;48.432;11.350;2023-02-20T04:11:15;4.03;;;1.60;;
47778;SDS011;33538;48.432;11.350;2023-02-20T04:13:46;3.15;;;1.75;;
47778;SDS011;33538;48.432;11.350;2023-02-20T04:16:14;5.20;;;1.98;;
47778;SDS011;33538;48.432;11.350;2023-02-20T04:18:41;5.22;;;2.03;;
47778;SDS011;33538;48.432;11.350;2023-02-20T04:21:10;5.45;;;1.77;;
47778;SDS011;33538;48.432;11.350;2023-02-20T04:23:45;4.80;;;1.58;;
47778;SDS011;33538;48.432;11.350;2023-02-20T04:26:16;3.20;;;2.20;;
47778;SDS011;33538;48.432;11.350;2023-02-20T04:28:45;4.20;;;2.10;;
47778;SDS011;33538;48.432;11.350;2023-02-20T04:31:13;3.58;;;1.83;;
47778;SDS011;33538;48.432;11.350;2023-02-20T04:33:42;3.38;;;1.65;;
47778;SDS011;33538;48.432;11.350;2023-02-20T04:36:09;8.02;;;1.90;;
47778;SDS011;33538;48.432;11.350;2023-02-20T04:38:37;2.88;;;1.60;;
47778;SDS011;33538;48.432;11.350;2023-02-20T04:41:05;7.60;;;2.47;;
47778;SDS011;33538;48.432;11.350;2023-02-20T04:43:32;3.50;;;1.88;;
47778;SDS011;33538;48.432;11.350;2023-02-20T04:45:59;3.80;;;1.98;;
47778;SDS011;33538;48.432;11.350;2023-02-20T04:48:25;3.45;;;1.88;;
47778;SDS011;33538;48.432;11.350;2023-02-20T04:50:52;3.72;;;1.70;;
47778;SDS011;33538;48.432;11.350;2023-02-20T04:53:19;2.92;;;1.63;;
47778;SDS011;33538;48.432;11.350;2023-02-20T04:55:46;3.78;;;1.52;;
47778;SDS011;33538;48.432;11.350;2023-02-20T04:58:14;2.92;;;1.60;;
47778;SDS011;33538;48.432;11.350;2023-02-20T05:00:41;2.65;;;1.60;;
47778;SDS011;33538;48.432;11.350;2023-02-20T05:03:08;3.88;;;1.63;;
47778;SDS011;33538;48.432;11.350;2023-02-20T05:05:35;4.07;;;1.90;;
47778;SDS011;33538;48.432;11.350;2023-02-20T05:08:02;2.05;;;1.50;;
47778;SDS011;33538;48.432;11.350;2023-02-20T05:10:31;2.72;;;2.03;;
47778;SDS011;33538;48.432;11.350;2023-02-20T05:12:59;2.83;;;1.60;;
47778;SDS011;33538;48.432;11.350;2023-02-20T05:15:28;2.85;;;1.45;;
47778;SDS011;33538;48.432;11.350;2023-02-20T05:17:55;2.92;;;1.58;;
47778;SDS011;33538;48.432;11.350;2023-02-20T05:20:22;5.05;;;1.83;;
47778;SDS011;33538;48.432;11.350;2023-02-20T05:22:49;3.60;;;1.80;;
47778;SDS011;33538;48.432;11.350;2023-02-20T05:25:16;3.33;;;1.83;;
47778;SDS011;33538;48.432;11.350;2023-02-20T05:27:43;2.72;;;1.70;;
47778;SDS011;33538;48.432;11.350;2023-02-20T05:30:10;4.53;;;1.75;;
47778;SDS011;33538;48.432;11.350;2023-02-20T05:32:39;3.00;;;1.50;;
47778;SDS011;33538;48.432;11.350;2023-02-20T05:35:05;3.08;;;1.60;;
47778;SDS011;33538;48.432;11.350;2023-02-20T05:37:32;2.97;;;1.80;;
47778;SDS011;33538;48.432;11.350;2023-02-20T05:39:59;5.63;;;1.73;;
47778;SDS011;33538;48.432;11.350;2023-02-20T05:42:26;4.15;;;1.70;;
47778;SDS011;33538;48.432;11.350;2023-02-20T05:44:53;3.40;;;1.88;;
47778;SDS011;33538;48.432;11.350;2023-02-20T05:47:19;4.00;;;1.63;;
47778;SDS011;33538;48.432;11.350;2023-02-20T05:49:47;2.13;;;1.60;;
47778;SDS011;33538;48.432;11.350;2023-02-20T05:52:14;3.75;;;1.80;;
47778;SDS011;33538;48.432;11.350;2023-02-20T05:54:41;2.78;;;1.80;;
47778;SDS011;33538;48.432;11.350;2023-02-20T05:57:11;2.88;;;1.80;;
47778;SDS011;33538;48.432;11.350;2023-02-20T05:59:38;6.60;;;2.33;;
47778;SDS011;33538;48.432;11.350;2023-02-20T06:02:05;5.03;;;1.55;;
47778;SDS011;33538;48.432;11.350;2023-02-20T06:04:32;5.63;;;1.88;;
47778;SDS011;33538;48.432;11.350;2023-02-20T06:07:00;3.78;;;1.90;;
47778;SDS011;33538;48.432;11.350;2023-02-20T06:09:26;6.63;;;1.77;;
47778;SDS011;33538;48.432;11.350;2023-02-20T06:11:54;5.13;;;2.08;;
47778;SDS011;33538;48.432;11.350;2023-02-20T06:14:22;2.85;;;1.65;;
47778;SDS011;33538;48.432;11.350;2023-02-20T06:16:51;5.63;;;2.00;;
47778;SDS011;33538;48.432;11.350;2023-02-20T06:19:18;3.53;;;2.25;;
47778;SDS011;33538;48.432;11.350;2023-02-20T06:21:46;5.47;;;1.77;;
47778;SDS011;33538;48.432;11.350;2023-02-20T06:24:14;3.38;;;2.17;;
47778;SDS011;33538;48.432;11.350;2023-02-20T06:26:41;2.55;;;1.70;;
47778;SDS011;33538;48.432;11.350;2023-02-20T06:29:09;4.35;;;1.95;;
47778;SDS011;33538;48.432;11.350;2023-02-20T06:31:36;2.97;;;1.52;;
47778;SDS011;33538;48.432;11.350;2023-02-20T06:34:03;3.15;;;1.90;;
47778;SDS011;33538;48.432;11.350;2023-02-20T06:36:31;3.50;;;2.05;;
47778;SDS011;33538;48.432;11.350;2023-02-20T06:39:00;8.68;;;2.00;;
47778;SDS011;33538;48.432;11.350;2023-02-20T06:41:29;4.90;;;2.33;;
47778;SDS011;33538;48.432;11.350;2023-02-20T06:43:56;4.18;;;2.17;;
47778;SDS011;33538;48.432;11.350;2023-02-20T06:46:22;7.20;;;2.03;;
47778;SDS011;33538;48.432;11.350;2023-02-20T06:48:50;2.92;;;1.75;;
47778;SDS011;33538;48.432;11.350;2023-02-20T06:51:19;2.85;;;1.90;;
47778;SDS011;33538;48.432;11.350;2023-02-20T06:53:46;5.43;;;1.83;;
47778;SDS011;33538;48.432;11.350;2023-02-20T06:56:14;4.60;;;1.83;;
47778;SDS011;33538;48.432;11.350;2023-02-20T06:58:43;3.72;;;2.05;;
47778;SDS011;33538;48.432;11.350;2023-02-20T07:01:10;2.58;;;1.70;;
47778;SDS011;33538;48.432;11.350;2023-02-20T07:03:37;2.45;;;1.70;;
47778;SDS011;33538;48.432;11.350;2023-02-20T07:06:04;5.50;;;1.73;;
47778;SDS011;33538;48.432;11.350;2023-02-20T07:08:31;4.07;;;2.15;;
47778;SDS011;33538;48.432;11.350;2023-02-20T07:10:58;6.50;;;2.10;;
47778;SDS011;33538;48.432;11.350;2023-02-20T07:13:25;3.22;;;1.88;;
47778;SDS011;33538;48.432;11.350;2023-02-20T07:15:53;4.30;;;1.95;;
47778;SDS011;33538;48.432;11.350;2023-02-20T07:18:20;7.65;;;2.65;;
47778;SDS011;33538;48.432;11.350;2023-02-20T07:20:47;3.95;;;1.98;;
47778;SDS011;33538;48.432;11.350;2023-02-20T07:23:13;5.78;;;2.25;;
47778;SDS011;33538;48.432;11.350;2023-02-20T07:25:40;4.82;;;2.08;;
47778;SDS011;33538;48.432;11.350;2023-02-20T07:28:07;4.30;;;1.70;;
47778;SDS011;33538;48.432;11.350;2023-02-20T07:30:34;3.50;;;2.05;;
47778;SDS011;33538;48.432;11.350;2023-02-20T07:33:02;3.50;;;2.30;;
47778;SDS011;33538;48.432;11.350;2023-02-20T07:35:29;2.80;;;2.10;;
47778;SDS011;33538;48.432;11.350;2023-02-20T07:37:56;3.25;;;2.13;;
47778;SDS011;33538;48.432;11.350;2023-02-20T07:40:22;3.92;;;2.50;;
47778;SDS011;33538;48.432;11.350;2023-02-20T07:42:49;5.10;;;2.67;;
47778;SDS011;33538;48.432;11.350;2023-02-20T07:45:16;7.18;;;2.38;;
47778;SDS011;33538;48.432;11.350;2023-02-20T07:47:43;5.38;;;2.05;;
47778;SDS011;33538;48.432;11.350;2023-02-20T07:50:12;3.28;;;2.05;;
47778;SDS011;33538;48.432;11.350;2023-02-20T07:52:39;2.95;;;2.05;;
47778;SDS011;33538;48.432;11.350;2023-02-20T07:55:06;3.17;;;1.83;;
47778;SDS011;33538;48.432;11.350;2023-02-20T07:57:34;2.92;;;1.98;;
47778;SDS011;33538;48.432;11.350;2023-02-20T08:00:02;4.00;;;1.88;;
47778;SDS011;33538;48.432;11.350;2023-02-20T08:02:29;3.03;;;2.10;;
47778;SDS011;33538;48.432;11.350;2023-02-20T08:04:56;4.00;;;1.83;;
47778;SDS011;33538;48.432;11.350;2023-02-20T08:07:24;6.40;;;2.00;;
47778;SDS011;33538;48.432;11.350;2023-02-20T08:09:51;4.47;;;1.88;;
47778;SDS011;33538;48.432;11.350;2023-02-20T08:12:18;3.85;;;2.20;;
47778;SDS011;33538;48.432;11.350;2023-02-20T08:14:44;3.67;;;2.00;;
47778;SDS011;33538;48.432;11.350;2023-02-20T08:17:14;7.00;;;1.83;;
47778;SDS011;33538;48.432;11.350;2023-02-20T08:19:41;6.10;;;2.30;;
47778;SDS011;33538;48.432;11.350;2023-02-20T08:22:07;4.53;;;2.20;;
47778;SDS011;33538;48.432;11.350;2023-02-20T08:24:36;4.60;;;1.58;;
47778;SDS011;33538;48.432;11.350;2023-02-20T08:27:02;4.38;;;2.00;;
47778;SDS011;33538;48.432;11.350;2023-02-20T08:29:29;4.65;;;1.90;;
47778;SDS011;33538;48.432;11.350;2023-02-20T08:31:56;5.05;;;2.40;;
47778;SDS011;33538;48.432;11.350;2023-02-20T08:34:23;4.65;;;2.10;;
47778;SDS011;33538;48.432;11.350;2023-02-20T08:36:49;4.10;;;1.75;;
47778;SDS011;33538;48.432;11.350;2023-02-20T08:39:16;4.43;;;2.00;;
47778;SDS011;33538;48.432;11.350;2023-02-20T08:41:44;4.68;;;2.00;;
47778;SDS011;33538;48.432;11.350;2023-02-20T08:44:12;5.07;;;2.35;;
47778;SDS011;33538;48.432;11.350;2023-02-20T08:46:44;5.75;;;2.30;;
47778;SDS011;33538;48.432;11.350;2023-02-20T08:49:11;3.83;;;2.03;;
47778;SDS011;33538;48.432;11.350;2023-02-20T08:51:38;3.75;;;1.73;;
47778;SDS011;33538;48.432;11.350;2023-02-20T08:54:05;5.22;;;1.90;;
47778;SDS011;33538;48.432;11.350;2023-02-20T08:56:31;4.07;;;2.15;;
47778;SDS011;33538;48.432;11.350;2023-02-20T08:59:00;4.55;;;2.35;;
47778;SDS011;33538;48.432;11.350;2023-02-20T09:01:26;2.83;;;1.92;;
47778;SDS011;33538;48.432;11.350;2023-02-20T09:03:53;5.93;;;2.17;;
47778;SDS011;33538;48.432;11.350;2023-02-20T09:06:20;4.85;;;2.20;;
47778;SDS011;33538;48.432;11.350;2023-02-20T09:08:47;3.53;;;1.98;;
47778;SDS011;33538;48.432;11.350;2023-02-20T09:11:14;2.72;;;1.70;;
47778;SDS011;33538;48.432;11.350;2023-02-20T09:13:41;8.18;;;1.80;;
47778;SDS011;33538;48.432;11.350;2023-02-20T09:16:09;2.15;;;1.58;;
47778;SDS011;33538;48.432;11.350;2023-02-20T09:18:37;3.95;;;1.70;;
47778;SDS011;33538;48.432;11.350;2023-02-20T09:21:07;2.05;;;1.60;;
47778;SDS011;33538;48.432;11.350;2023-02-20T09:23:34;3.70;;;1.67;;
47778;SDS011;33538;48.432;11.350;2023-02-20T09:26:01;7.07;;;2.28;;
47778;SDS011;33538;48.432;11.350;2023-02-20T09:28:28;4.13;;;1.75;;
47778;SDS011;33538;48.432;11.350;2023-02-20T09:30:55;5.50;;;1.35;;
47778;SDS011;33538;48.432;11.350;2023-02-20T09:33:23;1.85;;;1.42;;
47778;SDS011;33538;48.432;11.350;2023-02-20T09:35:49;4.28;;;2.10;;
47778;SDS011;33538;48.432;11.350;2023-02-20T09:38:16;2.45;;;1.60;;
47778;SDS011;33538;48.432;11.350;2023-02-20T09:40:44;4.10;;;1.90;;
47778;SDS011;33538;48.432;11.350;2023-02-20T09:43:16;8.35;;;2.35;;
47778;SDS011;33538;48.432;11.350;2023-02-20T09:45:55;6.43;;;1.77;;
47778;SDS011;33538;48.432;11.350;2023-02-20T09:48:30;6.10;;;1.83;;
47778;SDS011;33538;48.432;11.350;2023-02-20T09:51:05;2.65;;;1.83;;
47778;SDS011;33538;48.432;11.350;2023-02-20T09:53:41;3.30;;;2.00;;
47778;SDS011;33538;48.432;11.350;2023-02-20T09:56:16;9.07;;;1.92;;
47778;SDS011;33538;48.432;11.350;2023-02-20T09:58:46;2.90;;;1.95;;
47778;SDS011;33538;48.432;11.350;2023-02-20T10:01:18;7.90;;;2.03;;
47778;SDS011;33538;48.432;11.350;2023-02-20T10:03:52;3.13;;;1.65;;
47778;SDS011;33538;48.432;11.350;2023-02-20T10:06:21;2.88;;;1.90;;
47778;SDS011;33538;48.432;11.350;2023-02-20T10:08:50;2.70;;;1.48;;
47778;SDS011;33538;48.432;11.350;2023-02-20T10:11:20;5.85;;;2.28;;
47778;SDS011;33538;48.432;11.350;2023-02-20T10:13:59;5.15;;;1.73;;
47778;SDS011;33538;48.432;11.350;2023-02-20T10:16:38;5.40;;;2.03;;
47778;SDS011;33538;48.432;11.350;2023-02-20T10:19:16;6.43;;;1.70;;
47778;SDS011;33538;48.432;11.350;2023-02-20T10:21:50;2.65;;;1.75;;
47778;SDS011;33538;48.432;11.350;2023-02-20T10:24:33;4.40;;;1.80;;
47778;SDS011;33538;48.432;11.350;2023-02-20T10:27:15;5.32;;;1.80;;
47778;SDS011;33538;48.432;11.350;2023-02-20T10:29:50;3.00;;;1.90;;
47778;SDS011;33538;48.432;11.350;2023-02-20T10:32:19;5.07;;;2.00;;
47778;SDS011;33538;48.432;11.350;2023-02-20T10:34:52;6.90;;;1.92;;
47778;SDS011;33538;48.432;11.350;2023-02-20T10:37:24;4.93;;;1.90;;
47778;SDS011;33538;48.432;11.350;2023-02-20T10:40:12;3.35;;;1.83;;
47778;SDS011;33538;48.432;11.350;2023-02-20T10:42:46;2.70;;;1.77;;
47778;SDS011;33538;48.432;11.350;2023-02-20T10:45:19;2.22;;;1.65;;
47778;SDS011;33538;48.432;11.350;2023-02-20T10:47:52;2.50;;;1.52;;
47778;SDS011;33538;48.432;11.350;2023-02-20T10:50:30;5.10;;;1.88;;
47778;SDS011;33538;48.432;11.350;2023-02-20T10:53:03;2.30;;;1.70;;
47778;SDS011;33538;48.432;11.350;2023-02-20T10:55:38;5.57;;;1.55;;
47778;SDS011;33538;48.432;11.350;2023-02-20T10:58:09;5.75;;;1.80;;
47778;SDS011;33538;48.432;11.350;2023-02-20T11:00:41;2.47;;;1.48;;
47778;SDS011;33538;48.432;11.350;2023-02-20T11:03:13;2.38;;;1.45;;
47778;SDS011;33538;48.432;11.350;2023-02-20T11:05:46;2.15;;;1.40;;
47778;SDS011;33538;48.432;11.350;2023-02-20T11:08:16;4.85;;;1.55;;
47778;SDS011;33538;48.432;11.350;2023-02-20T11:10:43;4.20;;;1.70;;
47778;SDS011;33538;48.432;11.350;2023-02-20T11:13:11;4.63;;;1.58;;
47778;SDS011;33538;48.432;11.350;2023-02-20T11:15:41;7.32;;;2.05;;
47778;SDS011;33538;48.432;11.350;2023-02-20T11:18:10;3.90;;;1.35;;
47778;SDS011;33538;48.432;11.350;2023-02-20T11:20:46;5.22;;;1.63;;
47778;SDS011;33538;48.432;11.350;2023-02-20T11:23:32;2.13;;;1.30;;
47778;SDS011;33538;48.432;11.350;2023-02-20T11:26:12;1.65;;;1.25;;
47778;SDS011;33538;48.432;11.350;2023-02-20T11:28:53;3.22;;;1.33;;
47778;SDS011;33538;48.432;11.350;2023-02-20T11:31:22;3.20;;;1.73;;
47778;SDS011;33538;48.432;11.350;2023-02-20T11:33:50;2.08;;;1.05;;
47778;SDS011;33538;48.432;11.350;2023-02-20T11:36:21;1.70;;;1.10;;
47778;SDS011;33538;48.432;11.350;2023-02-20T11:38:55;2.55;;;1.50;;
47778;SDS011;33538;48.432;11.350;2023-02-20T11:41:24;5.28;;;1.52;;
47778;SDS011;33538;48.432;11.350;2023-02-20T11:44:05;2.22;;;1.15;;
47778;SDS011;33538;48.432;11.350;2023-02-20T11:46:41;2.67;;;1.40;;
47778;SDS011;33538;48.432;11.350;2023-02-20T11:49:09;1.80;;;1.33;;
47778;SDS011;33538;48.432;11.350;2023-02-20T11:51:48;1.77;;;1.30;;
47778;SDS011;33538;48.432;11.350;2023-02-20T11:54:16;4.60;;;1.60;;
47778;SDS011;33538;48.432;11.350;2023-02-20T11:56:52;3.22;;;1.50;;
47778;SDS011;33538;48.432;11.350;2023-02-20T11:59:25;1.77;;;1.13;;
47778;SDS011;33538;48.432;11.350;2023-02-20T12:01:53;5.50;;;1.67;;
47778;SDS011;33538;48.432;11.350;2023-02-20T12:04:26;2.65;;;1.30;;
47778;SDS011;33538;48.432;11.350;2023-02-20T12:06:54;1.65;;;1.20;;
47778;SDS011;33538;48.432;11.350;2023-02-20T12:09:21;2.45;;;1.10;;
47778;SDS011;33538;48.432;11.350;2023-02-20T12:11:52;6.55;;;1.52;;
47778;SDS011;33538;48.432;11.350;2023-02-20T12:14:20;2.65;;;1.15;;
47778;SDS011;33538;48.432;11.350;2023-02-20T12:16:51;1.23;;;1.00;;
47778;SDS011;33538;48.432;11.350;2023-02-20T12:19:27;1.95;;;0.93;;
47778;SDS011;33538;48.432;11.350;2023-02-20T12:22:08;2.72;;;1.00;;
47778;SDS011;33538;48.432;11.350;2023-02-20T12:24:47;4.38;;;1.40;;
47778;SDS011;33538;48.432;11.350;2023-02-20T12:27:42;1.88;;;1.00;;
47778;SDS011;33538;48.432;11.350;2023-02-20T12:30:24;6.80;;;1.40;;
47778;SDS011;33538;48.432;11.350;2023-02-20T12:33:02;1.30;;;0.90;;
47778;SDS011;33538;48.432;11.350;2023-02-20T12:35:44;2.15;;;1.10;;
47778;SDS011;33538;48.432;11.350;2023-02-20T12:38:28;2.70;;;1.30;;
47778;SDS011;33538;48.432;11.350;2023-02-20T12:41:11;1.00;;;0.90;;
47778;SDS011;33538;48.432;11.350;2023-02-20T12:43:51;2.28;;;1.20;;
47778;SDS011;33538;48.432;11.350;2023-02-20T12:46:40;1.60;;;1.02;;
47778;SDS011;33538;48.432;11.350;2023-02-20T12:49:17;1.70;;;0.95;;
47778;SDS011;33538;48.432;11.350;2023-02-20T12:51:55;3.33;;;1.20;;
47778;SDS011;33538;48.432;11.350;2023-02-20T12:54:28;1.02;;;0.93;;
47778;SDS011;33538;48.432;11.350;2023-02-20T12:57:04;2.08;;;1.00;;
47778;SDS011;33538;48.432;11.350;2023-02-20T12:59:39;1.30;;;0.93;;
47778;SDS011;33538;48.432;11.350;2023-02-20T13:02:18;4.00;;;1.15;;
47778;SDS011;33538;48.432;11.350;2023-02-20T13:05:07;2.28;;;0.98;;
47778;SDS011;33538;48.432;11.350;2023-02-20T13:07:38;2.10;;;1.10;;
47778;SDS011;33538;48.432;11.350;2023-02-20T13:10:13;3.42;;;1.20;;
47778;SDS011;33538;48.432;11.350;2023-02-20T13:12:42;1.75;;;0.90;;
47778;SDS011;33538;48.432;11.350;2023-02-20T13:15:15;1.30;;;0.85;;
47778;SDS011;33538;48.432;11.350;2023-02-20T13:17:51;1.63;;;0.93;;
47778;SDS011;33538;48.432;11.350;2023-02-20T13:20:22;1.77;;;1.10;;
47778;SDS011;33538;48.432;11.350;2023-02-20T13:22:58;2.13;;;0.95;;
47778;SDS011;33538;48.432;11.350;2023-02-20T13:25:33;2.03;;;1.02;;
47778;SDS011;33538;48.432;11.350;2023-02-20T13:28:05;1.00;;;0.80;;
47778;SDS011;33538;48.432;11.350;2023-02-20T13:31:04;3.75;;;1.15;;
47778;SDS011;33538;48.432;11.350;2023-02-20T13:33:33;1.67;;;0.90;;
47778;SDS011;33538;48.432;11.350;2023-02-20T13:36:00;1.00;;;1.00;;
47778;SDS011;33538;48.432;11.350;2023-02-20T13:38:27;2.60;;;0.90;;
47778;SDS011;33538;48.432;11.350;2023-02-20T13:41:06;0.95;;;0.80;;
47778;SDS011;33538;48.432;11.350;2023-02-20T13:43:34;0.95;;;0.85;;
47778;SDS011;33538;48.432;11.350;2023-02-20T13:46:14;2.28;;;0.95;;
47778;SDS011;33538;48.432;11.350;2023-02-20T13:48:43;1.63;;;1.05;;
47778;SDS011;33538;48.432;11.350;2023-02-20T13:53:58;4.07;;;1.17;;
47778;SDS011;33538;48.432;11.350;2023-02-20T13:56:44;2.33;;;1.00;;
47778;SDS011;33538;48.432;11.350;2023-02-20T13:59:15;3.60;;;1.15;;
47778;SDS011;33538;48.432;11.350;2023-02-20T14:01:56;2.35;;;0.82;;
47778;SDS011;33538;48.432;11.350;2023-02-20T14:04:37;2.17;;;1.00;;
47778;SDS011;33538;48.432;11.350;2023-02-20T14:07:04;1.38;;;0.90;;
47778;SDS011;33538;48.432;11.350;2023-02-20T14:09:30;1.33;;;0.90;;
47778;SDS011;33538;48.432;11.350;2023-02-20T14:12:03;1.70;;;0.95;;
47778;SDS011;33538;48.432;11.350;2023-02-20T14:14:33;2.38;;;1.00;;
47778;SDS011;33538;48.432;11.350;2023-02-20T14:17:04;1.65;;;1.00;;
47778;SDS011;33538;48.432;11.350;2023-02-20T14:19:34;3.05;;;1.20;;
47778;SDS011;33538;48.432;11.350;2023-02-20T14:22:22;1.00;;;0.90;;
47778;SDS011;33538;48.432;11.350;2023-02-20T14:25:06;1.65;;;0.80;;
47778;SDS011;33538;48.432;11.350;2023-02-20T14:27:46;1.52;;;0.90;;
47778;SDS011;33538;48.432;11.350;2023-02-20T14:30:16;1.38;;;0.82;;
47778;SDS011;33538;48.432;11.350;2023-02-20T14:32:45;1.52;;;0.90;;
47778;SDS011;33538;48.432;11.350;2023-02-20T14:35:35;3.90;;;1.02;;
47778;SDS011;33538;48.432;11.350;2023-02-20T14:38:12;1.13;;;0.93;;
47778;SDS011;33538;48.432;11.350;2023-02-20T14:40:46;1.00;;;0.70;;
47778;SDS011;33538;48.432;11.350;2023-02-20T14:43:16;2.58;;;0.85;;
47778;SDS011;33538;48.432;11.350;2023-02-20T14:45:45;0.82;;;0.73;;
47778;SDS011;33538;48.432;11.350;2023-02-20T14:48:24;1.75;;;0.60;;
47778;SDS011;33538;48.432;11.350;2023-02-20T14:53:55;2.72;;;1.08;;
47778;SDS011;33538;48.432;11.350;2023-02-20T14:56:23;1.95;;;0.75;;
47778;SDS011;33538;48.432;11.350;2023-02-20T14:58:52;0.75;;;0.50;;
47778;SDS011;33538;48.432;11.350;2023-02-20T15:01:28;2.35;;;0.90;;
47778;SDS011;33538;48.432;11.350;2023-02-20T15:04:02;2.65;;;1.10;;
47778;SDS011;33538;48.432;11.350;2023-02-20T15:06:33;2.88;;;0.80;;
47778;SDS011;33538;48.432;11.350;2023-02-20T15:09:01;1.30;;;1.00;;
47778;SDS011;33538;48.432;11.350;2023-02-20T15:11:47;2.20;;;1.17;;